createdAt,value
2023-04-02T00:01:42.331Z,99414.00
2023-04-02T00:04:21.323Z,99414.00
2023-04-02T00:06:53.600Z,99413.00
2023-04-02T00:09:32.431Z,99422.00
2023-04-02T00:12:14.762Z,99441.00
2023-04-02T00:14:47.520Z,99427.00
2023-04-02T00:17:15.627Z,99431.00
2023-04-02T00:19:48.508Z,99436.00
2023-04-02T00:22:22.537Z,99429.00
2023-04-02T00:24:53.459Z,99443.00
2023-04-02T00:27:21.197Z,99443.00
2023-04-02T00:29:49.642Z,99450.00
2023-04-02T00:32:24.571Z,99468.00
2023-04-02T00:34:53.228Z,99469.00
2023-04-02T00:37:24.573Z,99467.00
2023-04-02T00:39:56.548Z,99483.00
2023-04-02T00:42:24.981Z,99470.00
2023-04-02T00:44:55.305Z,99496.00
2023-04-02T00:47:26.222Z,99472.00
2023-04-02T00:49:59.662Z,99482.00
2023-04-02T00:52:31.054Z,99482.00
2023-04-02T00:55:04.475Z,99489.00
2023-04-02T00:57:33.205Z,99496.00
2023-04-02T01:00:11.351Z,99492.00
2023-04-02T01:02:40.129Z,99500.00
2023-04-02T01:05:22.583Z,99500.00
2023-04-02T01:08:03.531Z,99506.00
2023-04-02T01:10:45.013Z,99515.00
2023-04-02T01:13:23.948Z,99529.00
2023-04-02T01:15:57.858Z,99544.00
2023-04-02T01:18:36.115Z,99531.00
2023-04-02T01:21:37.305Z,99545.00
2023-04-02T01:24:07.033Z,99546.00
2023-04-02T01:26:46.385Z,99539.00
2023-04-02T01:29:16.078Z,99548.00
2023-04-02T01:31:46.040Z,99557.00
2023-04-02T01:34:15.926Z,99574.00
2023-04-02T01:36:52.406Z,99577.00
2023-04-02T01:39:34.404Z,99572.00
2023-04-02T01:42:09.097Z,99587.00
2023-04-02T01:44:41.693Z,99590.00
2023-04-02T01:47:13.079Z,99608.00
2023-04-02T01:49:41.957Z,99610.00
2023-04-02T01:52:12.548Z,99599.00
2023-04-02T01:54:41.341Z,99610.00
2023-04-02T01:57:09.039Z,99620.00
2023-04-02T01:59:37.277Z,99625.00
2023-04-02T02:02:06.555Z,99629.00
2023-04-02T02:04:34.761Z,99625.00
2023-04-02T02:07:03.847Z,99629.00
2023-04-02T02:09:34.261Z,99643.00
2023-04-02T02:12:03.224Z,99646.00
2023-04-02T02:14:32.344Z,99640.00
2023-04-02T02:17:02.166Z,99657.00
2023-04-02T02:19:33.088Z,99676.00
2023-04-02T02:22:10.543Z,99655.00
2023-04-02T02:24:38.399Z,99656.00
2023-04-02T02:27:33.259Z,99666.00
2023-04-02T02:30:06.776Z,99675.00
2023-04-02T02:32:39.358Z,99684.00
2023-04-02T02:35:15.516Z,99681.00
2023-04-02T02:37:45.948Z,99688.00
2023-04-02T02:40:19.933Z,99700.00
2023-04-02T02:42:51.959Z,99702.00
2023-04-02T02:45:23.864Z,99708.00
2023-04-02T02:47:54.180Z,99718.00
2023-04-02T02:50:24.999Z,99711.00
2023-04-02T02:52:54.780Z,99717.00
2023-04-02T02:55:26.834Z,99719.00
2023-04-02T02:57:58.526Z,99726.00
2023-04-02T03:00:26.312Z,99719.00
2023-04-02T03:02:56.932Z,99733.00
2023-04-02T03:05:27.142Z,99736.00
2023-04-02T03:07:56.917Z,99733.00
2023-04-02T03:10:32.383Z,99744.00
2023-04-02T03:13:07.769Z,99746.00
2023-04-02T03:15:41.754Z,99743.00
2023-04-02T03:18:18.183Z,99763.00
2023-04-02T03:20:51.430Z,99753.00
2023-04-02T03:23:23.049Z,99774.00
2023-04-02T03:25:56.472Z,99781.00
2023-04-02T03:28:26.977Z,99774.00
2023-04-02T03:30:59.219Z,99788.00
2023-04-02T03:33:31.619Z,99790.00
2023-04-02T03:36:03.200Z,99808.00
2023-04-02T03:38:35.863Z,99798.00
2023-04-02T03:41:10.744Z,99807.00
2023-04-02T03:43:42.884Z,99807.00
2023-04-02T03:46:26.956Z,99819.00
2023-04-02T03:48:58.456Z,99828.00
2023-04-02T03:51:30.348Z,99824.00
2023-04-02T03:53:57.885Z,99837.00
2023-04-02T03:56:30.952Z,99846.00
2023-04-02T03:59:10.245Z,99849.00
2023-04-02T04:01:43.249Z,99856.00
2023-04-02T04:04:16.571Z,99859.00
2023-04-02T04:06:45.914Z,99874.00
2023-04-02T04:09:22.892Z,99862.00
2023-04-02T04:11:54.306Z,99880.00
2023-04-02T04:14:28.761Z,99886.00
2023-04-02T04:17:03.725Z,99895.00
2023-04-02T04:19:39.867Z,99896.00
2023-04-02T04:22:14.111Z,99901.00
2023-04-02T04:24:45.157Z,99910.00
2023-04-02T04:27:21.248Z,99916.00
2023-04-02T04:29:55.548Z,99921.00
2023-04-02T04:32:31.161Z,99918.00
2023-04-02T04:35:05.442Z,99929.00
2023-04-02T04:37:36.360Z,99937.00
2023-04-02T04:40:11.287Z,99932.00
2023-04-02T04:42:42.711Z,99936.00
2023-04-02T04:45:23.537Z,99948.00
2023-04-02T04:47:55.732Z,99950.00
2023-04-02T04:50:31.020Z,99960.00
2023-04-02T04:53:04.348Z,99969.00
2023-04-02T04:55:37.392Z,99986.00
2023-04-02T04:58:13.712Z,99982.00
2023-04-02T05:00:50.122Z,99978.00
2023-04-02T05:03:24.833Z,99989.00
2023-04-02T05:05:53.690Z,99999.00
2023-04-02T05:08:26.376Z,99994.00
2023-04-02T05:10:59.784Z,100006.00
2023-04-02T05:13:33.626Z,100016.00
2023-04-02T05:16:10.703Z,100037.00
2023-04-02T05:18:43.045Z,100028.00
2023-04-02T05:21:19.457Z,100036.00
2023-04-02T05:23:49.601Z,100042.00
2023-04-02T05:26:20.859Z,100049.00
2023-04-02T05:28:57.009Z,100060.00
2023-04-02T05:31:27.605Z,100069.00
2023-04-02T05:33:56.257Z,100061.00
2023-04-02T05:36:27.229Z,100066.00
2023-04-02T05:38:56.080Z,100076.00
2023-04-02T05:41:27.774Z,100082.00
2023-04-02T05:44:03.497Z,100091.00
2023-04-02T05:46:36.238Z,100090.00
2023-04-02T05:49:06.679Z,100092.00
2023-04-02T05:51:41.406Z,100107.00
2023-04-02T05:54:22.491Z,100098.00
2023-04-02T05:56:55.575Z,100112.00
2023-04-02T05:59:25.465Z,100127.00
2023-04-02T06:01:58.246Z,100121.00
2023-04-02T06:04:30.501Z,100114.00
2023-04-02T06:07:03.371Z,100135.00
2023-04-02T06:09:39.399Z,100127.00
2023-04-02T06:12:22.539Z,100142.00
2023-04-02T06:14:50.068Z,100144.00
2023-04-02T06:17:19.694Z,100149.00
2023-04-02T06:19:47.681Z,100154.00
2023-04-02T06:22:24.220Z,100154.00
2023-04-02T06:24:57.442Z,100156.00
2023-04-02T06:27:26.685Z,100160.00
2023-04-02T06:29:59.604Z,100172.00
2023-04-02T06:32:27.304Z,100181.00
2023-04-02T06:34:55.117Z,100170.00
2023-04-02T06:37:27.805Z,100177.00
2023-04-02T06:39:56.060Z,100184.00
2023-04-02T06:42:28.171Z,100193.00
2023-04-02T06:44:55.655Z,100188.00
2023-04-02T06:47:31.934Z,100200.00
2023-04-02T06:50:05.037Z,100214.00
2023-04-02T06:52:37.011Z,100207.00
2023-04-02T06:55:26.534Z,100211.00
2023-04-02T06:57:53.994Z,100233.00
2023-04-02T07:00:34.388Z,100228.00
2023-04-02T07:03:05.366Z,100233.00
2023-04-02T07:05:32.901Z,100237.00
2023-04-02T07:08:01.033Z,100248.00
2023-04-02T07:10:28.439Z,100245.00
2023-04-02T07:12:55.693Z,100248.00
2023-04-02T07:15:24.752Z,100255.00
2023-04-02T07:17:52.582Z,100257.00
2023-04-02T07:20:26.816Z,100261.00
2023-04-02T07:22:54.680Z,100262.00
2023-04-02T07:25:23.125Z,100252.00
2023-04-02T07:27:50.719Z,100271.00
2023-04-02T07:30:18.244Z,100284.00
2023-04-02T07:32:46.006Z,100284.00
2023-04-02T07:35:13.618Z,100286.00
2023-04-02T07:37:41.002Z,100278.00
2023-04-02T07:40:17.582Z,100291.00
2023-04-02T07:42:46.269Z,100299.00
2023-04-02T07:45:13.961Z,100302.00
2023-04-02T07:47:41.370Z,100309.00
2023-04-02T07:50:09.885Z,100308.00
2023-04-02T07:52:41.402Z,100311.00
2023-04-02T07:55:10.026Z,100325.00
2023-04-02T07:57:41.208Z,100317.00
2023-04-02T08:00:11.651Z,100323.00
2023-04-02T08:02:39.025Z,100346.00
2023-04-02T08:05:07.123Z,100337.00
2023-04-02T08:07:34.812Z,100355.00
2023-04-02T08:10:03.162Z,100349.00
2023-04-02T08:12:30.639Z,100353.00
2023-04-02T08:14:58.136Z,100359.00
2023-04-02T08:17:30.498Z,100352.00
2023-04-02T08:20:00.277Z,100379.00
2023-04-02T08:22:27.820Z,100381.00
2023-04-02T08:24:56.053Z,100394.00
2023-04-02T08:27:23.533Z,100386.00
2023-04-02T08:29:50.958Z,100387.00
2023-04-02T08:32:18.571Z,100393.00
2023-04-02T08:34:46.772Z,100397.00
2023-04-02T08:37:14.184Z,100407.00
2023-04-02T08:39:41.770Z,100399.00
2023-04-02T08:42:22.164Z,100401.00
2023-04-02T08:45:05.796Z,100404.00
2023-04-02T08:47:41.658Z,100411.00
2023-04-02T08:50:21.341Z,100418.00
2023-04-02T08:52:48.770Z,100429.00
2023-04-02T08:55:25.952Z,100423.00
2023-04-02T08:58:01.100Z,100430.00
2023-04-02T09:00:37.805Z,100447.00
2023-04-02T09:03:10.615Z,100443.00
2023-04-02T09:05:42.005Z,100444.00
2023-04-02T09:08:17.020Z,100443.00
2023-04-02T09:10:51.389Z,100452.00
2023-04-02T09:13:23.186Z,100446.00
2023-04-02T09:15:53.161Z,100455.00
2023-04-02T09:18:20.894Z,100458.00
2023-04-02T09:20:49.527Z,100466.00
2023-04-02T09:23:19.468Z,100467.00
2023-04-02T09:26:01.355Z,100473.00
2023-04-02T09:28:31.395Z,100478.00
2023-04-02T09:31:11.348Z,100466.00
2023-04-02T09:33:43.357Z,100479.00
2023-04-02T09:36:26.106Z,100485.00
2023-04-02T09:39:00.767Z,100479.00
2023-04-02T09:41:29.739Z,100494.00
2023-04-02T09:44:17.664Z,100509.00
2023-04-02T09:46:52.208Z,100505.00
2023-04-02T09:49:22.391Z,100513.00
2023-04-02T09:52:08.155Z,100514.00
2023-04-02T09:54:41.036Z,100527.00
2023-04-02T09:57:23.073Z,100523.00
2023-04-02T10:00:25.945Z,100528.00
2023-04-02T10:03:04.492Z,100527.00
2023-04-02T10:05:40.725Z,100533.00
2023-04-02T10:08:18.972Z,100534.00
2023-04-02T10:10:49.743Z,100540.00
2023-04-02T10:13:22.311Z,100560.00
2023-04-02T10:15:55.168Z,100543.00
2023-04-02T10:18:30.383Z,100556.00
2023-04-02T10:20:59.024Z,100552.00
2023-04-02T10:23:29.852Z,100559.00
2023-04-02T10:26:09.257Z,100574.00
2023-04-02T10:28:50.084Z,100570.00
2023-04-02T10:31:24.764Z,100570.00
2023-04-02T10:34:00.115Z,100572.00
2023-04-02T10:36:43.636Z,100579.00
2023-04-02T10:39:14.467Z,100580.00
2023-04-02T10:41:50.713Z,100601.00
2023-04-02T10:44:40.745Z,100587.00
2023-04-02T10:47:21.734Z,100602.00
2023-04-02T10:49:56.491Z,100609.00
2023-04-02T10:52:29.165Z,100601.00
2023-04-02T10:55:01.220Z,100609.00
2023-04-02T10:57:36.610Z,100621.00
2023-04-02T11:00:15.990Z,100624.00
2023-04-02T11:02:50.172Z,100620.00
2023-04-02T11:05:28.492Z,100620.00
2023-04-02T11:08:03.885Z,100619.00
2023-04-02T11:10:36.102Z,100631.00
2023-04-02T11:13:11.420Z,100622.00
2023-04-02T11:15:39.359Z,100638.00
2023-04-02T11:18:06.871Z,100636.00
2023-04-02T11:21:05.645Z,100644.00
2023-04-02T11:23:54.243Z,100645.00
2023-04-02T11:26:40.344Z,100645.00
2023-04-02T11:29:27.746Z,100649.00
2023-04-02T11:32:35.090Z,100654.00
2023-04-02T11:35:37.130Z,100659.00
2023-04-02T11:38:43.338Z,100664.00
2023-04-02T11:41:10.749Z,100659.00
2023-04-02T11:43:59.233Z,100666.00
2023-04-02T11:46:42.273Z,100667.00
2023-04-02T11:49:35.770Z,100675.00
2023-04-02T11:52:11.586Z,100679.00
2023-04-02T11:54:40.549Z,100682.00
2023-04-02T11:57:21.608Z,100678.00
2023-04-02T12:00:06.148Z,100687.00
2023-04-02T12:02:41.314Z,100694.00
2023-04-02T12:05:18.215Z,100687.00
2023-04-02T12:08:04.638Z,100696.00
2023-04-02T12:10:34.199Z,100705.00
2023-04-02T12:13:01.604Z,100697.00
2023-04-02T12:15:43.105Z,100700.00
2023-04-02T12:18:16.865Z,100706.00
2023-04-02T12:20:49.232Z,100695.00
2023-04-02T12:23:23.229Z,100701.00
2023-04-02T12:25:58.696Z,100713.00
2023-04-02T12:28:28.397Z,100715.00
2023-04-02T12:31:06.068Z,100717.00
2023-04-02T12:33:36.646Z,100729.00
2023-04-02T12:36:06.213Z,100725.00
2023-04-02T12:38:36.646Z,100736.00
2023-04-02T12:41:06.165Z,100734.00
2023-04-02T12:43:35.022Z,100736.00
2023-04-02T12:46:05.337Z,100732.00
2023-04-02T12:48:34.013Z,100734.00
2023-04-02T12:51:02.586Z,100736.00
2023-04-02T12:53:33.472Z,100742.00
2023-04-02T12:56:01.141Z,100728.00
2023-04-02T12:58:31.848Z,100728.00
2023-04-02T13:01:18.074Z,100751.00
2023-04-02T13:03:58.790Z,100747.00
2023-04-02T13:06:26.358Z,100747.00
2023-04-02T13:08:54.894Z,100760.00
2023-04-02T13:11:22.581Z,100768.00
2023-04-02T13:13:50.732Z,100766.00
2023-04-02T13:16:33.511Z,100771.00
2023-04-02T13:19:26.921Z,100790.00
2023-04-02T13:21:55.775Z,100785.00
2023-04-02T13:24:25.252Z,100774.00
2023-04-02T13:26:56.379Z,100781.00
2023-04-02T13:29:26.404Z,100796.00
2023-04-02T13:31:56.459Z,100780.00
2023-04-02T13:34:24.153Z,100780.00
2023-04-02T13:36:51.462Z,100786.00
2023-04-02T13:39:19.833Z,100794.00
2023-04-02T13:41:50.631Z,100793.00
2023-04-02T13:44:24.015Z,100796.00
2023-04-02T13:46:52.423Z,100803.00
2023-04-02T13:49:20.782Z,100814.00
2023-04-02T13:51:49.854Z,100806.00
2023-04-02T13:54:24.438Z,100824.00
2023-04-02T13:56:51.964Z,100807.00
2023-04-02T13:59:20.350Z,100817.00
2023-04-02T14:01:49.768Z,100813.00
2023-04-02T14:04:21.550Z,100829.00
2023-04-02T14:07:10.615Z,100827.00
2023-04-02T14:09:49.716Z,100821.00
2023-04-02T14:12:25.599Z,100844.00
2023-04-02T14:15:16.859Z,100831.00
2023-04-02T14:17:59.090Z,100834.00
2023-04-02T14:20:41.228Z,100851.00
2023-04-02T14:23:34.757Z,100849.00
2023-04-02T14:26:11.084Z,100844.00
2023-04-02T14:28:48.588Z,100859.00
2023-04-02T14:31:24.738Z,100848.00
2023-04-02T14:33:57.777Z,100848.00
2023-04-02T14:36:34.939Z,100849.00
2023-04-02T14:39:09.792Z,100859.00
2023-04-02T14:41:46.589Z,100871.00
2023-04-02T14:44:15.251Z,100862.00
2023-04-02T14:46:43.057Z,100865.00
2023-04-02T14:49:23.205Z,100870.00
2023-04-02T14:51:57.403Z,100869.00
2023-04-02T14:54:31.417Z,100865.00
2023-04-02T14:57:04.733Z,100865.00
2023-04-02T14:59:35.346Z,100869.00
2023-04-02T15:02:08.661Z,100862.00
2023-04-02T15:04:40.711Z,100866.00
2023-04-02T15:07:18.605Z,100866.00
2023-04-02T15:09:50.859Z,100865.00
2023-04-02T15:12:22.362Z,100872.00
2023-04-02T15:14:55.271Z,100875.00
2023-04-02T15:17:24.050Z,100875.00
2023-04-02T15:20:11.873Z,100883.00
2023-04-02T15:22:46.888Z,100872.00
2023-04-02T15:25:24.615Z,100880.00
2023-04-02T15:28:03.686Z,100883.00
2023-04-02T15:30:36.987Z,100883.00
2023-04-02T15:33:38.341Z,100892.00
2023-04-02T15:36:43.161Z,100886.00
2023-04-02T15:39:38.847Z,100883.00
2023-04-02T15:42:17.364Z,100895.00
2023-04-02T15:44:56.384Z,100897.00
2023-04-02T15:47:32.322Z,100902.00
2023-04-02T15:50:13.078Z,100907.00
2023-04-02T15:52:51.596Z,100905.00
2023-04-02T15:55:25.837Z,100907.00
2023-04-02T15:58:18.518Z,100913.00
2023-04-02T16:00:51.735Z,100908.00
2023-04-02T16:03:49.174Z,100923.00
2023-04-02T16:06:31.668Z,100923.00
2023-04-02T16:09:17.680Z,100924.00
2023-04-02T16:11:45.762Z,100930.00
2023-04-02T16:14:25.019Z,100929.00
2023-04-02T16:16:56.011Z,100930.00
2023-04-02T16:19:29.268Z,100932.00
2023-04-02T16:22:02.796Z,100932.00
2023-04-02T16:24:30.384Z,100926.00
2023-04-02T16:27:08.191Z,100937.00
2023-04-02T16:30:08.283Z,100949.00
2023-04-02T16:32:51.184Z,100938.00
2023-04-02T16:35:42.781Z,100948.00
2023-04-02T16:38:21.039Z,100951.00
2023-04-02T16:41:06.806Z,100956.00
2023-04-02T16:43:48.818Z,100960.00
2023-04-02T16:46:38.191Z,100958.00
2023-04-02T16:49:15.526Z,100964.00
2023-04-02T16:51:50.564Z,100970.00
2023-04-02T16:54:25.055Z,100971.00
2023-04-02T16:57:09.835Z,100971.00
2023-04-02T16:59:44.872Z,100975.00
2023-04-02T17:02:24.735Z,100979.00
2023-04-02T17:05:02.786Z,100984.00
2023-04-02T17:07:35.763Z,100995.00
2023-04-02T17:10:24.319Z,100978.00
2023-04-02T17:12:59.491Z,100992.00
2023-04-02T17:15:33.061Z,100992.00
2023-04-02T17:18:08.432Z,100996.00
2023-04-02T17:20:36.097Z,100985.00
2023-04-02T17:23:05.351Z,100987.00
2023-04-02T17:25:37.087Z,100999.00
2023-04-02T17:28:12.357Z,101005.00
2023-04-02T17:30:43.433Z,101004.00
2023-04-02T17:33:12.526Z,101003.00
2023-04-02T17:35:49.257Z,101009.00
2023-04-02T17:38:25.249Z,101008.00
2023-04-02T17:41:00.234Z,101012.00
2023-04-02T17:43:42.389Z,101013.00
2023-04-02T17:46:20.413Z,101005.00
2023-04-02T17:48:54.228Z,101014.00
2023-04-02T17:51:31.094Z,101013.00
2023-04-02T17:54:10.612Z,101003.00
2023-04-02T17:56:54.388Z,101018.00
2023-04-02T17:59:40.906Z,101018.00
2023-04-02T18:02:25.619Z,101018.00
2023-04-02T18:05:00.002Z,101032.00
2023-04-02T18:07:36.806Z,101022.00
2023-04-02T18:10:17.410Z,101025.00
2023-04-02T18:12:56.384Z,101027.00
2023-04-02T18:15:48.305Z,101027.00
2023-04-02T18:18:30.313Z,101027.00
2023-04-02T18:21:10.804Z,101040.00
2023-04-02T18:23:53.651Z,101045.00
2023-04-02T18:26:32.711Z,101049.00
2023-04-02T18:29:08.254Z,101047.00
2023-04-02T18:31:44.641Z,101050.00
2023-04-02T18:34:44.323Z,101055.00
2023-04-02T18:37:28.503Z,101071.00
2023-04-02T18:40:19.522Z,101065.00
2023-04-02T18:43:00.730Z,101074.00
2023-04-02T18:45:40.080Z,101073.00
2023-04-02T18:48:21.812Z,101081.00
2023-04-02T18:50:50.262Z,101084.00
2023-04-02T18:53:21.552Z,101093.00
2023-04-02T18:55:53.905Z,101091.00
2023-04-02T18:58:25.758Z,101091.00
2023-04-02T19:00:53.842Z,101088.00
2023-04-02T19:03:27.906Z,101090.00
2023-04-02T19:06:01.474Z,101092.00
2023-04-02T19:08:32.576Z,101090.00
2023-04-02T19:11:01.653Z,101094.00
2023-04-02T19:13:29.240Z,101108.00
2023-04-02T19:16:09.279Z,101107.00
2023-04-02T19:18:49.828Z,101107.00
2023-04-02T19:21:27.216Z,101117.00
2023-04-02T19:24:07.161Z,101120.00
2023-04-02T19:26:41.523Z,101122.00
2023-04-02T19:29:23.227Z,101133.00
2023-04-02T19:31:55.125Z,101125.00
2023-04-02T19:34:28.190Z,101122.00
2023-04-02T19:37:02.483Z,101128.00
2023-04-02T19:40:02.529Z,101130.00
2023-04-02T19:42:45.933Z,101126.00
2023-04-02T19:45:33.841Z,101138.00
2023-04-02T19:48:10.716Z,101149.00
2023-04-02T19:50:38.568Z,101146.00
2023-04-02T19:53:07.233Z,101144.00
2023-04-02T19:55:35.212Z,101150.00
2023-04-02T19:58:17.325Z,101145.00
2023-04-02T20:00:47.098Z,101137.00
2023-04-02T20:03:14.582Z,101150.00
2023-04-02T20:05:41.978Z,101155.00
2023-04-02T20:08:11.678Z,101150.00
2023-04-02T20:10:39.415Z,101162.00
2023-04-02T20:13:06.752Z,101155.00
2023-04-02T20:19:15.149Z,101165.00
2023-04-02T20:21:42.468Z,101164.00
2023-04-02T20:24:10.461Z,101172.00
2023-04-02T20:26:37.788Z,101175.00
2023-04-02T20:29:05.194Z,101171.00
2023-04-02T20:31:33.654Z,101175.00
2023-04-02T20:34:04.245Z,101186.00
2023-04-02T20:36:32.103Z,101177.00
2023-04-02T20:38:59.389Z,101182.00
2023-04-02T20:41:27.562Z,101179.00
2023-04-02T20:43:55.010Z,101188.00
2023-04-02T20:46:22.508Z,101187.00
2023-04-02T20:48:49.894Z,101195.00
2023-04-02T20:51:17.236Z,101197.00
2023-04-02T20:53:45.493Z,101202.00
2023-04-02T20:56:15.272Z,101201.00
2023-04-02T20:58:43.808Z,101202.00
2023-04-02T21:01:14.898Z,101197.00
2023-04-02T21:03:42.318Z,101208.00
2023-04-02T21:06:13.942Z,101207.00
2023-04-02T21:08:41.450Z,101214.00
2023-04-02T21:11:10.109Z,101213.00
2023-04-02T21:13:37.782Z,101217.00
2023-04-02T21:16:14.266Z,101216.00
2023-04-02T21:18:41.691Z,101228.00
2023-04-02T21:21:12.618Z,101217.00
2023-04-02T21:23:41.035Z,101222.00
2023-04-02T21:26:10.984Z,101223.00
2023-04-02T21:28:38.394Z,101225.00
2023-04-02T21:31:10.049Z,101221.00
2023-04-02T21:33:39.075Z,101230.00
2023-04-02T21:36:07.852Z,101226.00
2023-04-02T21:38:35.875Z,101226.00
2023-04-02T21:41:13.940Z,101236.00
2023-04-02T21:43:41.441Z,101236.00
2023-04-02T21:46:09.734Z,101235.00
2023-04-02T21:48:37.096Z,101237.00
2023-04-02T21:51:09.822Z,101241.00
2023-04-02T21:53:37.207Z,101237.00
2023-04-02T21:56:05.924Z,101236.00
2023-04-02T21:58:33.260Z,101248.00
2023-04-02T22:01:00.663Z,101249.00
2023-04-02T22:03:32.050Z,101247.00
2023-04-02T22:06:04.046Z,101248.00
2023-04-02T22:08:31.420Z,101249.00
2023-04-02T22:11:03.931Z,101255.00
2023-04-02T22:13:31.258Z,101255.00
2023-04-02T22:16:01.581Z,101252.00
2023-04-02T22:18:29.594Z,101250.00
2023-04-02T22:20:57.776Z,101264.00
2023-04-02T22:23:25.853Z,101255.00
2023-04-02T22:25:54.135Z,101255.00
2023-04-02T22:28:22.003Z,101250.00
2023-04-02T22:30:49.681Z,101258.00
2023-04-02T22:33:17.388Z,101257.00
2023-04-02T22:35:48.659Z,101255.00
2023-04-02T22:38:16.000Z,101263.00
2023-04-02T22:40:43.291Z,101264.00
2023-04-02T22:43:10.709Z,101266.00
2023-04-02T22:45:38.090Z,101266.00
2023-04-02T22:48:05.603Z,101273.00
2023-04-02T22:50:32.919Z,101282.00
2023-04-02T22:53:01.078Z,101275.00
2023-04-02T22:55:28.591Z,101276.00
2023-04-02T22:57:55.900Z,101279.00
2023-04-02T23:00:23.532Z,101274.00
2023-04-02T23:02:50.954Z,101289.00
2023-04-02T23:05:18.362Z,101282.00
2023-04-02T23:07:45.727Z,101285.00
2023-04-02T23:10:13.726Z,101296.00
2023-04-02T23:12:41.080Z,101292.00
2023-04-02T23:15:09.614Z,101298.00
2023-04-02T23:17:37.158Z,101305.00
2023-04-02T23:20:05.334Z,101306.00
2023-04-02T23:22:32.845Z,101304.00
2023-04-02T23:25:00.238Z,101306.00
2023-04-02T23:27:28.201Z,101308.00
2023-04-02T23:29:55.479Z,101303.00
2023-04-02T23:32:22.949Z,101306.00
2023-04-02T23:34:50.328Z,101306.00
2023-04-02T23:37:17.599Z,101312.00
2023-04-02T23:39:45.140Z,101307.00
2023-04-02T23:42:12.491Z,101308.00
2023-04-02T23:44:40.534Z,101309.00
2023-04-02T23:47:08.533Z,101315.00
2023-04-02T23:49:35.897Z,101306.00
2023-04-02T23:52:03.295Z,101313.00
2023-04-02T23:54:30.624Z,101311.00
2023-04-02T23:56:58.006Z,101314.00
2023-04-02T23:59:25.374Z,101312.00
